sensor_id;sensor_type;location;lat;lon;timestamp;P1;durP1;ratioP1;P2;durP2;ratioP2
70247;SDS011;57641;51.416;5.506;2022-10-12T00:00:29;8.73;;;4.00;;
70247;SDS011;57641;51.416;5.506;2022-10-12T00:02:55;8.65;;;3.75;;
70247;SDS011;57641;51.416;5.506;2022-10-12T00:05:20;9.15;;;4.00;;
70247;SDS011;57641;51.416;5.506;2022-10-12T00:07:46;8.75;;;4.22;;
70247;SDS011;57641;51.416;5.506;2022-10-12T00:10:11;11.55;;;4.53;;
70247;SDS011;57641;51.416;5.506;2022-10-12T00:12:36;9.20;;;5.18;;
70247;SDS011;57641;51.416;5.506;2022-10-12T00:15:02;13.35;;;4.50;;
70247;SDS011;57641;51.416;5.506;2022-10-12T00:17:28;11.52;;;5.00;;
70247;SDS011;57641;51.416;5.506;2022-10-12T00:19:53;10.00;;;4.93;;
70247;SDS011;57641;51.416;5.506;2022-10-12T00:22:19;9.23;;;5.03;;
70247;SDS011;57641;51.416;5.506;2022-10-12T00:24:44;10.45;;;4.88;;
70247;SDS011;57641;51.416;5.506;2022-10-12T00:27:09;12.93;;;4.97;;
70247;SDS011;57641;51.416;5.506;2022-10-12T00:29:35;9.15;;;5.15;;
70247;SDS011;57641;51.416;5.506;2022-10-12T00:32:00;9.90;;;4.85;;
70247;SDS011;57641;51.416;5.506;2022-10-12T00:34:26;11.25;;;4.93;;
70247;SDS011;57641;51.416;5.506;2022-10-12T00:36:51;12.68;;;4.85;;
70247;SDS011;57641;51.416;5.506;2022-10-12T00:39:19;11.57;;;5.00;;
70247;SDS011;57641;51.416;5.506;2022-10-12T00:41:45;12.35;;;5.20;;
70247;SDS011;57641;51.416;5.506;2022-10-12T00:49:40;10.82;;;5.35;;
70247;SDS011;57641;51.416;5.506;2022-10-12T00:52:07;9.60;;;5.18;;
70247;SDS011;57641;51.416;5.506;2022-10-12T00:54:36;11.35;;;5.75;;
70247;SDS011;57641;51.416;5.506;2022-10-12T00:57:07;11.35;;;6.00;;
70247;SDS011;57641;51.416;5.506;2022-10-12T00:59:36;13.93;;;5.60;;
70247;SDS011;57641;51.416;5.506;2022-10-12T01:02:08;11.05;;;5.97;;
70247;SDS011;57641;51.416;5.506;2022-10-12T01:04:34;11.65;;;5.95;;
70247;SDS011;57641;51.416;5.506;2022-10-12T01:07:02;13.32;;;5.93;;
70247;SDS011;57641;51.416;5.506;2022-10-12T01:09:28;11.63;;;5.38;;
70247;SDS011;57641;51.416;5.506;2022-10-12T01:11:55;13.05;;;6.03;;
70247;SDS011;57641;51.416;5.506;2022-10-12T01:14:22;10.90;;;5.45;;
70247;SDS011;57641;51.416;5.506;2022-10-12T01:22:44;11.02;;;6.38;;
70247;SDS011;57641;51.416;5.506;2022-10-12T01:28:18;14.48;;;6.15;;
70247;SDS011;57641;51.416;5.506;2022-10-12T01:30:58;10.52;;;6.40;;
70247;SDS011;57641;51.416;5.506;2022-10-12T01:33:34;14.68;;;7.35;;
70247;SDS011;57641;51.416;5.506;2022-10-12T01:38:35;11.73;;;6.47;;
70247;SDS011;57641;51.416;5.506;2022-10-12T01:48:41;13.98;;;6.97;;
70247;SDS011;57641;51.416;5.506;2022-10-12T01:51:11;13.00;;;6.97;;
70247;SDS011;57641;51.416;5.506;2022-10-12T01:53:40;14.15;;;7.03;;
70247;SDS011;57641;51.416;5.506;2022-10-12T01:59:02;10.82;;;7.45;;
70247;SDS011;57641;51.416;5.506;2022-10-12T02:01:42;15.75;;;7.18;;
70247;SDS011;57641;51.416;5.506;2022-10-12T02:04:26;13.50;;;7.70;;
70247;SDS011;57641;51.416;5.506;2022-10-12T02:07:04;13.60;;;6.85;;
70247;SDS011;57641;51.416;5.506;2022-10-12T02:09:36;13.35;;;6.85;;
70247;SDS011;57641;51.416;5.506;2022-10-12T02:12:17;16.17;;;7.63;;
70247;SDS011;57641;51.416;5.506;2022-10-12T02:14:51;12.23;;;7.35;;
70247;SDS011;57641;51.416;5.506;2022-10-12T02:17:20;14.25;;;7.45;;
70247;SDS011;57641;51.416;5.506;2022-10-12T02:19:48;12.68;;;7.63;;
70247;SDS011;57641;51.416;5.506;2022-10-12T02:22:19;13.48;;;6.93;;
70247;SDS011;57641;51.416;5.506;2022-10-12T02:24:48;12.02;;;7.32;;
70247;SDS011;57641;51.416;5.506;2022-10-12T02:27:20;14.77;;;7.72;;
70247;SDS011;57641;51.416;5.506;2022-10-12T02:29:48;17.27;;;7.82;;
70247;SDS011;57641;51.416;5.506;2022-10-12T02:32:34;13.27;;;7.22;;
70247;SDS011;57641;51.416;5.506;2022-10-12T02:35:05;12.52;;;7.10;;
70247;SDS011;57641;51.416;5.506;2022-10-12T02:38:07;17.75;;;7.55;;
70247;SDS011;57641;51.416;5.506;2022-10-12T02:40:40;12.57;;;6.45;;
70247;SDS011;57641;51.416;5.506;2022-10-12T02:43:20;12.40;;;7.00;;
70247;SDS011;57641;51.416;5.506;2022-10-12T02:45:57;11.38;;;6.47;;
70247;SDS011;57641;51.416;5.506;2022-10-12T02:48:25;12.70;;;6.22;;
70247;SDS011;57641;51.416;5.506;2022-10-12T02:50:54;14.65;;;6.47;;
70247;SDS011;57641;51.416;5.506;2022-10-12T02:53:22;13.20;;;6.93;;
70247;SDS011;57641;51.416;5.506;2022-10-12T02:55:52;14.35;;;6.30;;
70247;SDS011;57641;51.416;5.506;2022-10-12T02:58:23;12.15;;;6.20;;
70247;SDS011;57641;51.416;5.506;2022-10-12T03:00:50;10.30;;;6.20;;
70247;SDS011;57641;51.416;5.506;2022-10-12T03:03:16;13.90;;;6.85;;
70247;SDS011;57641;51.416;5.506;2022-10-12T03:05:41;12.55;;;7.13;;
70247;SDS011;57641;51.416;5.506;2022-10-12T03:08:07;12.27;;;7.15;;
70247;SDS011;57641;51.416;5.506;2022-10-12T03:10:33;14.35;;;6.68;;
70247;SDS011;57641;51.416;5.506;2022-10-12T03:12:58;10.40;;;6.10;;
70247;SDS011;57641;51.416;5.506;2022-10-12T03:15:24;12.60;;;6.63;;
70247;SDS011;57641;51.416;5.506;2022-10-12T03:17:49;14.35;;;6.95;;
70247;SDS011;57641;51.416;5.506;2022-10-12T03:20:15;13.52;;;6.63;;
70247;SDS011;57641;51.416;5.506;2022-10-12T03:22:41;12.30;;;7.00;;
70247;SDS011;57641;51.416;5.506;2022-10-12T03:25:06;11.45;;;6.63;;
70247;SDS011;57641;51.416;5.506;2022-10-12T03:27:32;12.68;;;6.80;;
70247;SDS011;57641;51.416;5.506;2022-10-12T03:29:57;15.88;;;6.53;;
70247;SDS011;57641;51.416;5.506;2022-10-12T03:32:23;11.60;;;6.53;;
70247;SDS011;57641;51.416;5.506;2022-10-12T03:34:48;11.00;;;6.53;;
70247;SDS011;57641;51.416;5.506;2022-10-12T03:37:14;16.17;;;7.05;;
70247;SDS011;57641;51.416;5.506;2022-10-12T03:39:39;13.82;;;7.00;;
70247;SDS011;57641;51.416;5.506;2022-10-12T03:42:04;13.95;;;7.35;;
70247;SDS011;57641;51.416;5.506;2022-10-12T03:44:30;15.65;;;7.30;;
70247;SDS011;57641;51.416;5.506;2022-10-12T03:46:55;12.05;;;6.10;;
70247;SDS011;57641;51.416;5.506;2022-10-12T03:49:21;11.18;;;6.65;;
70247;SDS011;57641;51.416;5.506;2022-10-12T03:51:46;10.98;;;6.43;;
70247;SDS011;57641;51.416;5.506;2022-10-12T03:54:11;15.07;;;6.88;;
70247;SDS011;57641;51.416;5.506;2022-10-12T03:56:37;12.60;;;6.45;;
70247;SDS011;57641;51.416;5.506;2022-10-12T03:59:03;12.00;;;6.38;;
70247;SDS011;57641;51.416;5.506;2022-10-12T04:01:29;11.95;;;6.13;;
70247;SDS011;57641;51.416;5.506;2022-10-12T04:03:54;14.38;;;7.13;;
70247;SDS011;57641;51.416;5.506;2022-10-12T04:06:20;8.55;;;5.80;;
70247;SDS011;57641;51.416;5.506;2022-10-12T04:08:45;12.60;;;6.13;;
70247;SDS011;57641;51.416;5.506;2022-10-12T04:11:10;12.60;;;6.65;;
70247;SDS011;57641;51.416;5.506;2022-10-12T04:13:36;11.25;;;6.15;;
70247;SDS011;57641;51.416;5.506;2022-10-12T04:16:05;10.00;;;6.70;;
70247;SDS011;57641;51.416;5.506;2022-10-12T04:18:32;10.50;;;5.85;;
70247;SDS011;57641;51.416;5.506;2022-10-12T04:20:58;9.63;;;6.07;;
70247;SDS011;57641;51.416;5.506;2022-10-12T04:23:24;16.45;;;5.88;;
70247;SDS011;57641;51.416;5.506;2022-10-12T04:25:50;9.32;;;5.50;;
70247;SDS011;57641;51.416;5.506;2022-10-12T04:28:15;11.93;;;5.90;;
70247;SDS011;57641;51.416;5.506;2022-10-12T04:30:41;13.88;;;6.30;;
70247;SDS011;57641;51.416;5.506;2022-10-12T04:33:06;12.30;;;5.47;;
70247;SDS011;57641;51.416;5.506;2022-10-12T04:35:32;9.15;;;5.35;;
70247;SDS011;57641;51.416;5.506;2022-10-12T04:37:58;11.25;;;5.63;;
70247;SDS011;57641;51.416;5.506;2022-10-12T04:40:23;11.27;;;5.57;;
70247;SDS011;57641;51.416;5.506;2022-10-12T04:42:49;15.05;;;5.93;;
70247;SDS011;57641;51.416;5.506;2022-10-12T04:45:14;14.40;;;5.85;;
70247;SDS011;57641;51.416;5.506;2022-10-12T04:47:40;9.70;;;5.47;;
70247;SDS011;57641;51.416;5.506;2022-10-12T04:50:05;11.55;;;6.53;;
70247;SDS011;57641;51.416;5.506;2022-10-12T04:52:31;15.05;;;7.50;;
70247;SDS011;57641;51.416;5.506;2022-10-12T04:54:57;14.48;;;6.05;;
70247;SDS011;57641;51.416;5.506;2022-10-12T04:57:22;14.35;;;6.43;;
70247;SDS011;57641;51.416;5.506;2022-10-12T04:59:48;12.43;;;5.78;;
70247;SDS011;57641;51.416;5.506;2022-10-12T05:02:13;10.57;;;5.65;;
70247;SDS011;57641;51.416;5.506;2022-10-12T05:04:39;12.68;;;6.22;;
70247;SDS011;57641;51.416;5.506;2022-10-12T05:07:05;14.95;;;6.90;;
70247;SDS011;57641;51.416;5.506;2022-10-12T05:09:30;13.07;;;5.82;;
70247;SDS011;57641;51.416;5.506;2022-10-12T05:11:56;14.73;;;6.35;;
70247;SDS011;57641;51.416;5.506;2022-10-12T05:14:21;15.82;;;6.72;;
70247;SDS011;57641;51.416;5.506;2022-10-12T05:16:47;9.80;;;6.20;;
70247;SDS011;57641;51.416;5.506;2022-10-12T05:19:12;11.18;;;6.00;;
70247;SDS011;57641;51.416;5.506;2022-10-12T05:21:38;13.30;;;6.28;;
70247;SDS011;57641;51.416;5.506;2022-10-12T05:24:04;13.23;;;5.63;;
70247;SDS011;57641;51.416;5.506;2022-10-12T05:26:31;17.23;;;6.55;;
70247;SDS011;57641;51.416;5.506;2022-10-12T05:28:56;13.35;;;6.07;;
70247;SDS011;57641;51.416;5.506;2022-10-12T05:31:22;16.05;;;6.03;;
70247;SDS011;57641;51.416;5.506;2022-10-12T05:33:47;13.07;;;5.95;;
70247;SDS011;57641;51.416;5.506;2022-10-12T05:36:12;16.60;;;6.50;;
70247;SDS011;57641;51.416;5.506;2022-10-12T05:38:38;13.13;;;6.45;;
70247;SDS011;57641;51.416;5.506;2022-10-12T05:41:03;14.93;;;6.55;;
70247;SDS011;57641;51.416;5.506;2022-10-12T05:43:29;14.00;;;6.63;;
70247;SDS011;57641;51.416;5.506;2022-10-12T05:45:54;16.88;;;6.90;;
70247;SDS011;57641;51.416;5.506;2022-10-12T05:48:20;13.85;;;6.20;;
70247;SDS011;57641;51.416;5.506;2022-10-12T05:50:45;15.43;;;6.30;;
70247;SDS011;57641;51.416;5.506;2022-10-12T05:53:11;16.10;;;6.22;;
70247;SDS011;57641;51.416;5.506;2022-10-12T05:55:36;15.70;;;6.75;;
70247;SDS011;57641;51.416;5.506;2022-10-12T05:58:01;14.48;;;6.75;;
70247;SDS011;57641;51.416;5.506;2022-10-12T06:00:27;15.10;;;6.63;;
70247;SDS011;57641;51.416;5.506;2022-10-12T06:02:52;17.67;;;6.38;;
70247;SDS011;57641;51.416;5.506;2022-10-12T06:05:18;16.85;;;6.20;;
70247;SDS011;57641;51.416;5.506;2022-10-12T06:07:43;15.57;;;6.13;;
70247;SDS011;57641;51.416;5.506;2022-10-12T06:10:09;14.07;;;6.15;;
70247;SDS011;57641;51.416;5.506;2022-10-12T06:12:34;12.68;;;6.22;;
70247;SDS011;57641;51.416;5.506;2022-10-12T06:14:59;18.98;;;7.43;;
70247;SDS011;57641;51.416;5.506;2022-10-12T06:17:25;12.10;;;6.22;;
70247;SDS011;57641;51.416;5.506;2022-10-12T06:19:50;16.88;;;6.47;;
70247;SDS011;57641;51.416;5.506;2022-10-12T06:22:16;20.58;;;6.80;;
70247;SDS011;57641;51.416;5.506;2022-10-12T06:24:42;21.65;;;6.82;;
70247;SDS011;57641;51.416;5.506;2022-10-12T06:27:07;13.95;;;6.45;;
70247;SDS011;57641;51.416;5.506;2022-10-12T06:29:33;12.98;;;6.80;;
70247;SDS011;57641;51.416;5.506;2022-10-12T06:31:59;10.52;;;6.03;;
70247;SDS011;57641;51.416;5.506;2022-10-12T06:34:25;14.70;;;7.25;;
70247;SDS011;57641;51.416;5.506;2022-10-12T06:36:50;12.85;;;6.30;;
70247;SDS011;57641;51.416;5.506;2022-10-12T06:39:16;10.32;;;6.32;;
70247;SDS011;57641;51.416;5.506;2022-10-12T06:41:42;7.85;;;5.22;;
70247;SDS011;57641;51.416;5.506;2022-10-12T06:44:07;12.10;;;5.63;;
70247;SDS011;57641;51.416;5.506;2022-10-12T06:46:33;12.80;;;5.75;;
70247;SDS011;57641;51.416;5.506;2022-10-12T06:48:59;10.00;;;6.22;;
70247;SDS011;57641;51.416;5.506;2022-10-12T06:51:24;9.60;;;5.60;;
70247;SDS011;57641;51.416;5.506;2022-10-12T06:53:53;13.52;;;6.68;;
70247;SDS011;57641;51.416;5.506;2022-10-12T06:56:19;10.45;;;5.93;;
70247;SDS011;57641;51.416;5.506;2022-10-12T06:58:44;11.95;;;6.03;;
70247;SDS011;57641;51.416;5.506;2022-10-12T07:01:10;10.40;;;5.72;;
70247;SDS011;57641;51.416;5.506;2022-10-12T07:03:36;9.82;;;6.32;;
70247;SDS011;57641;51.416;5.506;2022-10-12T07:06:08;8.57;;;5.25;;
70247;SDS011;57641;51.416;5.506;2022-10-12T07:08:36;9.52;;;5.90;;
70247;SDS011;57641;51.416;5.506;2022-10-12T07:11:02;11.25;;;6.03;;
70247;SDS011;57641;51.416;5.506;2022-10-12T07:13:30;10.07;;;5.95;;
70247;SDS011;57641;51.416;5.506;2022-10-12T07:15:56;11.80;;;5.70;;
70247;SDS011;57641;51.416;5.506;2022-10-12T07:18:22;12.77;;;6.38;;
70247;SDS011;57641;51.416;5.506;2022-10-12T07:20:48;12.25;;;5.65;;
70247;SDS011;57641;51.416;5.506;2022-10-12T07:23:14;9.82;;;5.78;;
70247;SDS011;57641;51.416;5.506;2022-10-12T07:25:45;9.77;;;5.82;;
70247;SDS011;57641;51.416;5.506;2022-10-12T07:28:16;9.40;;;6.00;;
70247;SDS011;57641;51.416;5.506;2022-10-12T07:30:42;10.57;;;6.30;;
70247;SDS011;57641;51.416;5.506;2022-10-12T07:33:08;11.82;;;5.72;;
70247;SDS011;57641;51.416;5.506;2022-10-12T07:35:34;8.95;;;5.50;;
70247;SDS011;57641;51.416;5.506;2022-10-12T07:38:00;10.55;;;5.75;;
70247;SDS011;57641;51.416;5.506;2022-10-12T07:40:27;11.23;;;5.97;;
70247;SDS011;57641;51.416;5.506;2022-10-12T07:42:53;11.43;;;5.55;;
70247;SDS011;57641;51.416;5.506;2022-10-12T07:45:19;11.23;;;5.95;;
70247;SDS011;57641;51.416;5.506;2022-10-12T07:47:44;10.32;;;6.20;;
70247;SDS011;57641;51.416;5.506;2022-10-12T07:50:11;10.38;;;6.60;;
70247;SDS011;57641;51.416;5.506;2022-10-12T07:52:37;12.63;;;6.72;;
70247;SDS011;57641;51.416;5.506;2022-10-12T07:55:03;12.38;;;6.80;;
70247;SDS011;57641;51.416;5.506;2022-10-12T07:57:29;9.60;;;6.00;;
70247;SDS011;57641;51.416;5.506;2022-10-12T07:59:55;10.80;;;6.72;;
70247;SDS011;57641;51.416;5.506;2022-10-12T08:02:21;11.85;;;7.40;;
70247;SDS011;57641;51.416;5.506;2022-10-12T08:04:46;11.98;;;7.93;;
70247;SDS011;57641;51.416;5.506;2022-10-12T08:07:11;13.98;;;7.43;;
70247;SDS011;57641;51.416;5.506;2022-10-12T08:09:37;13.55;;;7.45;;
70247;SDS011;57641;51.416;5.506;2022-10-12T08:12:03;14.13;;;7.70;;
70247;SDS011;57641;51.416;5.506;2022-10-12T08:14:30;15.88;;;8.23;;
70247;SDS011;57641;51.416;5.506;2022-10-12T08:16:56;15.00;;;8.48;;
70247;SDS011;57641;51.416;5.506;2022-10-12T08:19:22;18.20;;;8.90;;
70247;SDS011;57641;51.416;5.506;2022-10-12T08:21:48;24.70;;;10.60;;
70247;SDS011;57641;51.416;5.506;2022-10-12T08:24:14;17.63;;;10.27;;
70247;SDS011;57641;51.416;5.506;2022-10-12T08:26:39;18.75;;;10.15;;
70247;SDS011;57641;51.416;5.506;2022-10-12T08:29:05;17.27;;;10.57;;
70247;SDS011;57641;51.416;5.506;2022-10-12T08:31:32;21.30;;;10.73;;
70247;SDS011;57641;51.416;5.506;2022-10-12T08:33:59;22.85;;;11.38;;
70247;SDS011;57641;51.416;5.506;2022-10-12T08:36:25;19.67;;;10.85;;
70247;SDS011;57641;51.416;5.506;2022-10-12T08:38:54;21.55;;;10.18;;
70247;SDS011;57641;51.416;5.506;2022-10-12T08:47:41;19.05;;;10.38;;
70247;SDS011;57641;51.416;5.506;2022-10-12T08:50:15;20.73;;;10.13;;
70247;SDS011;57641;51.416;5.506;2022-10-12T08:52:50;22.92;;;10.75;;
70247;SDS011;57641;51.416;5.506;2022-10-12T08:57:47;18.25;;;11.32;;
70247;SDS011;57641;51.416;5.506;2022-10-12T09:00:14;16.75;;;9.52;;
70247;SDS011;57641;51.416;5.506;2022-10-12T09:02:47;21.45;;;10.23;;
70247;SDS011;57641;51.416;5.506;2022-10-12T09:05:22;21.65;;;9.48;;
70247;SDS011;57641;51.416;5.506;2022-10-12T09:10:45;22.85;;;11.45;;
70247;SDS011;57641;51.416;5.506;2022-10-12T09:13:33;20.95;;;10.52;;
70247;SDS011;57641;51.416;5.506;2022-10-12T09:16:26;20.00;;;11.40;;
70247;SDS011;57641;51.416;5.506;2022-10-12T09:18:53;19.38;;;9.88;;
70247;SDS011;57641;51.416;5.506;2022-10-12T09:21:24;22.38;;;11.40;;
70247;SDS011;57641;51.416;5.506;2022-10-12T09:23:54;21.55;;;10.88;;
70247;SDS011;57641;51.416;5.506;2022-10-12T09:26:28;22.65;;;11.18;;
70247;SDS011;57641;51.416;5.506;2022-10-12T09:29:00;26.88;;;11.02;;
70247;SDS011;57641;51.416;5.506;2022-10-12T09:31:30;22.30;;;10.82;;
70247;SDS011;57641;51.416;5.506;2022-10-12T09:34:19;16.83;;;8.32;;
70247;SDS011;57641;51.416;5.506;2022-10-12T09:36:45;21.55;;;10.18;;
70247;SDS011;57641;51.416;5.506;2022-10-12T09:39:21;17.63;;;9.38;;
70247;SDS011;57641;51.416;5.506;2022-10-12T09:41:55;22.77;;;10.45;;
70247;SDS011;57641;51.416;5.506;2022-10-12T09:44:28;17.92;;;9.32;;
70247;SDS011;57641;51.416;5.506;2022-10-12T09:46:58;23.60;;;9.80;;
70247;SDS011;57641;51.416;5.506;2022-10-12T09:49:41;16.65;;;7.82;;
70247;SDS011;57641;51.416;5.506;2022-10-12T09:52:09;17.40;;;8.10;;
70247;SDS011;57641;51.416;5.506;2022-10-12T09:54:44;21.00;;;9.00;;
70247;SDS011;57641;51.416;5.506;2022-10-12T09:59:46;12.73;;;6.68;;
70247;SDS011;57641;51.416;5.506;2022-10-12T10:02:17;16.52;;;7.82;;
70247;SDS011;57641;51.416;5.506;2022-10-12T10:04:45;15.90;;;7.78;;
70247;SDS011;57641;51.416;5.506;2022-10-12T10:07:19;18.10;;;7.90;;
70247;SDS011;57641;51.416;5.506;2022-10-12T10:12:32;13.10;;;7.00;;
70247;SDS011;57641;51.416;5.506;2022-10-12T10:15:13;16.40;;;7.43;;
70247;SDS011;57641;51.416;5.506;2022-10-12T10:17:51;20.85;;;8.45;;
70247;SDS011;57641;51.416;5.506;2022-10-12T10:20:29;15.05;;;7.68;;
70247;SDS011;57641;51.416;5.506;2022-10-12T10:22:58;11.85;;;5.97;;
70247;SDS011;57641;51.416;5.506;2022-10-12T10:25:29;18.08;;;6.80;;
70247;SDS011;57641;51.416;5.506;2022-10-12T10:28:19;14.60;;;7.40;;
70247;SDS011;57641;51.416;5.506;2022-10-12T10:33:27;11.98;;;6.22;;
70247;SDS011;57641;51.416;5.506;2022-10-12T10:38:54;12.00;;;6.07;;
70247;SDS011;57641;51.416;5.506;2022-10-12T10:41:40;11.23;;;5.38;;
70247;SDS011;57641;51.416;5.506;2022-10-12T10:44:24;13.65;;;5.15;;
70247;SDS011;57641;51.416;5.506;2022-10-12T10:47:02;11.75;;;5.72;;
70247;SDS011;57641;51.416;5.506;2022-10-12T10:49:35;14.60;;;5.22;;
70247;SDS011;57641;51.416;5.506;2022-10-12T10:52:18;11.23;;;5.35;;
70247;SDS011;57641;51.416;5.506;2022-10-12T10:57:40;12.05;;;5.22;;
70247;SDS011;57641;51.416;5.506;2022-10-12T11:02:57;10.83;;;5.07;;
70247;SDS011;57641;51.416;5.506;2022-10-12T11:05:30;9.60;;;4.50;;
70247;SDS011;57641;51.416;5.506;2022-10-12T11:10:39;11.70;;;5.28;;
70247;SDS011;57641;51.416;5.506;2022-10-12T11:13:27;6.25;;;3.97;;
70247;SDS011;57641;51.416;5.506;2022-10-12T11:16:04;12.38;;;4.28;;
70247;SDS011;57641;51.416;5.506;2022-10-12T11:19:28;8.85;;;3.45;;
70247;SDS011;57641;51.416;5.506;2022-10-12T11:22:31;8.15;;;3.53;;
70247;SDS011;57641;51.416;5.506;2022-10-12T11:27:37;8.10;;;4.35;;
70247;SDS011;57641;51.416;5.506;2022-10-12T11:30:15;9.40;;;4.60;;
70247;SDS011;57641;51.416;5.506;2022-10-12T11:32:44;10.82;;;5.57;;
70247;SDS011;57641;51.416;5.506;2022-10-12T11:35:24;15.90;;;6.00;;
70247;SDS011;57641;51.416;5.506;2022-10-12T11:38:05;13.57;;;5.93;;
70247;SDS011;57641;51.416;5.506;2022-10-12T11:40:51;12.07;;;5.85;;
70247;SDS011;57641;51.416;5.506;2022-10-12T11:43:23;11.73;;;5.40;;
70247;SDS011;57641;51.416;5.506;2022-10-12T11:45:55;9.45;;;5.20;;
70247;SDS011;57641;51.416;5.506;2022-10-12T11:48:31;11.20;;;4.85;;
70247;SDS011;57641;51.416;5.506;2022-10-12T11:51:02;11.23;;;5.28;;
70247;SDS011;57641;51.416;5.506;2022-10-12T11:56:26;10.32;;;4.43;;
70247;SDS011;57641;51.416;5.506;2022-10-12T11:58:55;7.55;;;3.45;;
70247;SDS011;57641;51.416;5.506;2022-10-12T12:01:33;9.02;;;4.43;;
70247;SDS011;57641;51.416;5.506;2022-10-12T12:07:43;10.90;;;4.35;;
70247;SDS011;57641;51.416;5.506;2022-10-12T12:09:53;10.98;;;3.47;;
70247;SDS011;57641;51.416;5.506;2022-10-12T12:19:47;9.45;;;3.70;;
70247;SDS011;57641;51.416;5.506;2022-10-12T12:22:19;5.78;;;2.90;;
70247;SDS011;57641;51.416;5.506;2022-10-12T12:27:34;8.25;;;3.28;;
70247;SDS011;57641;51.416;5.506;2022-10-12T12:38:04;6.95;;;2.83;;
70247;SDS011;57641;51.416;5.506;2022-10-12T12:40:30;6.97;;;2.45;;
70247;SDS011;57641;51.416;5.506;2022-10-12T12:45:58;13.15;;;3.03;;
70247;SDS011;57641;51.416;5.506;2022-10-12T12:51:46;9.88;;;2.30;;
70247;SDS011;57641;51.416;5.506;2022-10-12T12:54:14;7.07;;;2.47;;
70247;SDS011;57641;51.416;5.506;2022-10-12T12:59:46;7.80;;;2.40;;
70247;SDS011;57641;51.416;5.506;2022-10-12T13:08:19;9.00;;;2.88;;
70247;SDS011;57641;51.416;5.506;2022-10-12T13:14:44;9.20;;;2.45;;
70247;SDS011;57641;51.416;5.506;2022-10-12T13:20:18;5.63;;;2.10;;
70247;SDS011;57641;51.416;5.506;2022-10-12T13:22:47;6.32;;;1.75;;
70247;SDS011;57641;51.416;5.506;2022-10-12T13:27:52;6.13;;;1.83;;
70247;SDS011;57641;51.416;5.506;2022-10-12T13:40:43;8.88;;;2.63;;
70247;SDS011;57641;51.416;5.506;2022-10-12T13:46:09;5.63;;;2.20;;
70247;SDS011;57641;51.416;5.506;2022-10-12T13:48:37;5.72;;;2.10;;
70247;SDS011;57641;51.416;5.506;2022-10-12T13:51:03;8.32;;;2.42;;
70247;SDS011;57641;51.416;5.506;2022-10-12T13:53:42;6.90;;;2.63;;
70247;SDS011;57641;51.416;5.506;2022-10-12T13:56:13;5.53;;;2.38;;
70247;SDS011;57641;51.416;5.506;2022-10-12T13:58:42;4.90;;;1.90;;
70247;SDS011;57641;51.416;5.506;2022-10-12T14:01:11;6.78;;;2.40;;
70247;SDS011;57641;51.416;5.506;2022-10-12T14:03:39;6.00;;;2.00;;
70247;SDS011;57641;51.416;5.506;2022-10-12T14:09:07;4.97;;;1.90;;
70247;SDS011;57641;51.416;5.506;2022-10-12T14:11:35;5.47;;;2.10;;
70247;SDS011;57641;51.416;5.506;2022-10-12T14:14:02;8.25;;;2.30;;
70247;SDS011;57641;51.416;5.506;2022-10-12T14:16:28;7.53;;;2.15;;
70247;SDS011;57641;51.416;5.506;2022-10-12T14:18:54;6.10;;;2.03;;
70247;SDS011;57641;51.416;5.506;2022-10-12T14:21:26;7.78;;;1.77;;
70247;SDS011;57641;51.416;5.506;2022-10-12T14:23:58;2.70;;;1.90;;
70247;SDS011;57641;51.416;5.506;2022-10-12T14:26:38;4.80;;;2.08;;
70247;SDS011;57641;51.416;5.506;2022-10-12T14:31:55;5.28;;;1.92;;
70247;SDS011;57641;51.416;5.506;2022-10-12T14:39:42;5.05;;;2.10;;
70247;SDS011;57641;51.416;5.506;2022-10-12T14:42:21;7.05;;;2.50;;
70247;SDS011;57641;51.416;5.506;2022-10-12T14:44:51;9.05;;;2.28;;
70247;SDS011;57641;51.416;5.506;2022-10-12T14:47:24;7.00;;;2.45;;
70247;SDS011;57641;51.416;5.506;2022-10-12T14:49:55;8.70;;;2.50;;
70247;SDS011;57641;51.416;5.506;2022-10-12T14:52:27;8.95;;;2.72;;
70247;SDS011;57641;51.416;5.506;2022-10-12T14:55:03;8.40;;;2.80;;
70247;SDS011;57641;51.416;5.506;2022-10-12T14:57:32;5.10;;;2.80;;
70247;SDS011;57641;51.416;5.506;2022-10-12T14:59:58;9.05;;;3.20;;
70247;SDS011;57641;51.416;5.506;2022-10-12T15:02:24;6.72;;;2.75;;
70247;SDS011;57641;51.416;5.506;2022-10-12T15:04:52;5.28;;;2.08;;
70247;SDS011;57641;51.416;5.506;2022-10-12T15:09:50;6.97;;;2.22;;
70247;SDS011;57641;51.416;5.506;2022-10-12T15:12:19;8.32;;;2.63;;
70247;SDS011;57641;51.416;5.506;2022-10-12T15:14:47;12.15;;;2.60;;
70247;SDS011;57641;51.416;5.506;2022-10-12T15:17:23;5.97;;;2.72;;
70247;SDS011;57641;51.416;5.506;2022-10-12T15:19:49;4.28;;;2.20;;
70247;SDS011;57641;51.416;5.506;2022-10-12T15:22:17;5.53;;;2.50;;
70247;SDS011;57641;51.416;5.506;2022-10-12T15:24:45;8.95;;;2.55;;
70247;SDS011;57641;51.416;5.506;2022-10-12T15:27:12;6.60;;;2.45;;
70247;SDS011;57641;51.416;5.506;2022-10-12T15:29:37;7.72;;;2.70;;
70247;SDS011;57641;51.416;5.506;2022-10-12T15:32:03;9.82;;;2.90;;
70247;SDS011;57641;51.416;5.506;2022-10-12T15:34:29;6.22;;;2.65;;
70247;SDS011;57641;51.416;5.506;2022-10-12T15:36:55;8.88;;;2.55;;
70247;SDS011;57641;51.416;5.506;2022-10-12T15:39:21;7.00;;;2.25;;
70247;SDS011;57641;51.416;5.506;2022-10-12T15:41:46;4.95;;;2.28;;
70247;SDS011;57641;51.416;5.506;2022-10-12T15:44:15;9.27;;;2.35;;
70247;SDS011;57641;51.416;5.506;2022-10-12T15:46:42;8.20;;;3.20;;
70247;SDS011;57641;51.416;5.506;2022-10-12T15:49:08;7.35;;;3.08;;
70247;SDS011;57641;51.416;5.506;2022-10-12T15:51:37;7.32;;;2.88;;
70247;SDS011;57641;51.416;5.506;2022-10-12T15:54:04;9.10;;;2.83;;
70247;SDS011;57641;51.416;5.506;2022-10-12T15:56:30;9.13;;;3.45;;
70247;SDS011;57641;51.416;5.506;2022-10-12T15:58:56;7.20;;;2.75;;
70247;SDS011;57641;51.416;5.506;2022-10-12T16:01:21;7.00;;;3.28;;
70247;SDS011;57641;51.416;5.506;2022-10-12T16:03:47;8.43;;;3.67;;
70247;SDS011;57641;51.416;5.506;2022-10-12T16:06:13;10.88;;;4.20;;
70247;SDS011;57641;51.416;5.506;2022-10-12T16:08:40;9.35;;;3.53;;
70247;SDS011;57641;51.416;5.506;2022-10-12T16:11:07;11.32;;;3.35;;
70247;SDS011;57641;51.416;5.506;2022-10-12T16:13:36;8.35;;;3.20;;
70247;SDS011;57641;51.416;5.506;2022-10-12T16:16:02;5.70;;;3.13;;
70247;SDS011;57641;51.416;5.506;2022-10-12T16:18:27;6.40;;;2.80;;
70247;SDS011;57641;51.416;5.506;2022-10-12T16:20:53;8.70;;;3.10;;
70247;SDS011;57641;51.416;5.506;2022-10-12T16:23:22;6.95;;;3.05;;
70247;SDS011;57641;51.416;5.506;2022-10-12T16:25:53;7.75;;;3.13;;
70247;SDS011;57641;51.416;5.506;2022-10-12T16:28:22;8.63;;;2.88;;
70247;SDS011;57641;51.416;5.506;2022-10-12T16:30:52;10.07;;;2.78;;
70247;SDS011;57641;51.416;5.506;2022-10-12T16:33:19;6.15;;;2.75;;
70247;SDS011;57641;51.416;5.506;2022-10-12T16:35:45;6.65;;;2.50;;
70247;SDS011;57641;51.416;5.506;2022-10-12T16:38:11;6.82;;;2.85;;
70247;SDS011;57641;51.416;5.506;2022-10-12T16:40:39;8.52;;;3.13;;
70247;SDS011;57641;51.416;5.506;2022-10-12T16:43:06;8.02;;;2.65;;
70247;SDS011;57641;51.416;5.506;2022-10-12T16:45:33;5.85;;;2.60;;
70247;SDS011;57641;51.416;5.506;2022-10-12T16:47:58;4.88;;;2.33;;
70247;SDS011;57641;51.416;5.506;2022-10-12T16:50:25;8.23;;;3.03;;
70247;SDS011;57641;51.416;5.506;2022-10-12T16:52:50;5.45;;;2.60;;
70247;SDS011;57641;51.416;5.506;2022-10-12T16:55:17;5.82;;;2.83;;
70247;SDS011;57641;51.416;5.506;2022-10-12T16:57:44;8.38;;;3.05;;
70247;SDS011;57641;51.416;5.506;2022-10-12T17:00:11;8.00;;;3.30;;
70247;SDS011;57641;51.416;5.506;2022-10-12T17:02:39;5.60;;;2.67;;
70247;SDS011;57641;51.416;5.506;2022-10-12T17:05:05;7.95;;;2.85;;